sensor_id;sensor_type;location;lat;lon;timestamp;P1;durP1;ratioP1;P2;durP2;ratioP2
75152;SDS011;63734;45.218;36.708;2023-02-04T00:01:24;10.77;;;4.68;;
75152;SDS011;63734;45.218;36.708;2023-02-04T00:03:50;10.95;;;5.35;;
75152;SDS011;63734;45.218;36.708;2023-02-04T00:06:16;11.60;;;6.25;;
75152;SDS011;63734;45.218;36.708;2023-02-04T00:08:42;10.77;;;4.95;;
75152;SDS011;63734;45.218;36.708;2023-02-04T00:11:08;11.45;;;5.22;;
75152;SDS011;63734;45.218;36.708;2023-02-04T00:13:34;9.88;;;5.22;;
75152;SDS011;63734;45.218;36.708;2023-02-04T00:16:00;13.23;;;7.00;;
75152;SDS011;63734;45.218;36.708;2023-02-04T00:18:27;14.05;;;7.15;;
75152;SDS011;63734;45.218;36.708;2023-02-04T00:20:53;13.20;;;6.45;;
75152;SDS011;63734;45.218;36.708;2023-02-04T00:23:19;12.15;;;5.90;;
75152;SDS011;63734;45.218;36.708;2023-02-04T00:25:45;15.18;;;7.57;;
75152;SDS011;63734;45.218;36.708;2023-02-04T00:28:11;16.40;;;6.88;;
75152;SDS011;63734;45.218;36.708;2023-02-04T00:30:37;15.93;;;7.32;;
75152;SDS011;63734;45.218;36.708;2023-02-04T00:33:03;12.35;;;6.00;;
75152;SDS011;63734;45.218;36.708;2023-02-04T00:35:29;13.68;;;6.22;;
75152;SDS011;63734;45.218;36.708;2023-02-04T00:37:55;15.23;;;6.93;;
75152;SDS011;63734;45.218;36.708;2023-02-04T00:40:21;15.32;;;7.35;;
75152;SDS011;63734;45.218;36.708;2023-02-04T00:42:47;12.98;;;6.07;;
75152;SDS011;63734;45.218;36.708;2023-02-04T00:45:13;11.23;;;5.70;;
75152;SDS011;63734;45.218;36.708;2023-02-04T00:47:39;18.08;;;7.75;;
75152;SDS011;63734;45.218;36.708;2023-02-04T00:50:05;16.85;;;7.88;;
75152;SDS011;63734;45.218;36.708;2023-02-04T00:52:31;16.15;;;7.25;;
75152;SDS011;63734;45.218;36.708;2023-02-04T00:54:57;13.93;;;7.07;;
75152;SDS011;63734;45.218;36.708;2023-02-04T00:57:23;13.88;;;6.43;;
75152;SDS011;63734;45.218;36.708;2023-02-04T00:59:49;13.02;;;6.70;;
75152;SDS011;63734;45.218;36.708;2023-02-04T01:02:15;14.38;;;7.20;;
75152;SDS011;63734;45.218;36.708;2023-02-04T01:04:41;16.33;;;7.40;;
75152;SDS011;63734;45.218;36.708;2023-02-04T01:07:07;17.90;;;7.43;;
75152;SDS011;63734;45.218;36.708;2023-02-04T01:09:33;19.63;;;8.55;;
75152;SDS011;63734;45.218;36.708;2023-02-04T01:11:59;18.92;;;8.45;;
75152;SDS011;63734;45.218;36.708;2023-02-04T01:14:25;17.70;;;7.32;;
75152;SDS011;63734;45.218;36.708;2023-02-04T01:16:51;16.33;;;7.97;;
75152;SDS011;63734;45.218;36.708;2023-02-04T01:19:17;18.65;;;8.25;;
75152;SDS011;63734;45.218;36.708;2023-02-04T01:21:45;18.60;;;8.60;;
75152;SDS011;63734;45.218;36.708;2023-02-04T01:24:11;14.82;;;7.07;;
75152;SDS011;63734;45.218;36.708;2023-02-04T01:26:57;10.45;;;5.97;;
75152;SDS011;63734;45.218;36.708;2023-02-04T01:29:23;15.90;;;6.45;;
75152;SDS011;63734;45.218;36.708;2023-02-04T01:31:49;11.73;;;6.00;;
75152;SDS011;63734;45.218;36.708;2023-02-04T01:34:15;15.35;;;7.35;;
75152;SDS011;63734;45.218;36.708;2023-02-04T01:36:42;12.48;;;7.20;;
75152;SDS011;63734;45.218;36.708;2023-02-04T01:39:08;12.68;;;6.30;;
75152;SDS011;63734;45.218;36.708;2023-02-04T01:41:34;16.73;;;7.28;;
75152;SDS011;63734;45.218;36.708;2023-02-04T01:44:00;10.15;;;6.32;;
75152;SDS011;63734;45.218;36.708;2023-02-04T01:46:26;14.00;;;7.07;;
75152;SDS011;63734;45.218;36.708;2023-02-04T01:48:52;14.38;;;6.63;;
75152;SDS011;63734;45.218;36.708;2023-02-04T01:51:21;13.05;;;6.20;;
75152;SDS011;63734;45.218;36.708;2023-02-04T01:53:52;15.25;;;7.72;;
75152;SDS011;63734;45.218;36.708;2023-02-04T01:56:21;11.60;;;6.40;;
75152;SDS011;63734;45.218;36.708;2023-02-04T01:58:49;13.00;;;6.32;;
75152;SDS011;63734;45.218;36.708;2023-02-04T02:01:32;12.52;;;5.97;;
75152;SDS011;63734;45.218;36.708;2023-02-04T02:03:59;11.40;;;5.53;;
75152;SDS011;63734;45.218;36.708;2023-02-04T02:06:25;9.70;;;5.65;;
75152;SDS011;63734;45.218;36.708;2023-02-04T02:08:52;12.30;;;6.20;;
75152;SDS011;63734;45.218;36.708;2023-02-04T02:11:18;10.20;;;4.90;;
75152;SDS011;63734;45.218;36.708;2023-02-04T02:13:45;11.07;;;6.35;;
75152;SDS011;63734;45.218;36.708;2023-02-04T02:16:11;9.30;;;4.45;;
75152;SDS011;63734;45.218;36.708;2023-02-04T02:18:37;10.63;;;5.35;;
75152;SDS011;63734;45.218;36.708;2023-02-04T02:21:04;11.48;;;5.78;;
75152;SDS011;63734;45.218;36.708;2023-02-04T02:26:12;12.10;;;6.15;;
75152;SDS011;63734;45.218;36.708;2023-02-04T02:28:39;10.10;;;5.47;;
75152;SDS011;63734;45.218;36.708;2023-02-04T02:31:06;12.48;;;5.80;;
75152;SDS011;63734;45.218;36.708;2023-02-04T02:33:32;11.82;;;5.47;;
75152;SDS011;63734;45.218;36.708;2023-02-04T02:35:59;11.18;;;5.68;;
75152;SDS011;63734;45.218;36.708;2023-02-04T02:38:25;10.10;;;5.55;;
75152;SDS011;63734;45.218;36.708;2023-02-04T02:40:51;11.80;;;5.55;;
75152;SDS011;63734;45.218;36.708;2023-02-04T02:43:22;12.90;;;6.05;;
75152;SDS011;63734;45.218;36.708;2023-02-04T02:45:49;11.43;;;5.65;;
75152;SDS011;63734;45.218;36.708;2023-02-04T02:48:16;10.00;;;4.97;;
75152;SDS011;63734;45.218;36.708;2023-02-04T02:50:43;9.25;;;5.15;;
75152;SDS011;63734;45.218;36.708;2023-02-04T02:53:14;10.27;;;5.18;;
75152;SDS011;63734;45.218;36.708;2023-02-04T02:55:43;12.43;;;5.57;;
75152;SDS011;63734;45.218;36.708;2023-02-04T02:58:31;12.77;;;5.93;;
75152;SDS011;63734;45.218;36.708;2023-02-04T03:01:00;10.73;;;5.30;;
75152;SDS011;63734;45.218;36.708;2023-02-04T03:03:33;10.77;;;5.50;;
75152;SDS011;63734;45.218;36.708;2023-02-04T03:06:35;13.05;;;5.68;;
75152;SDS011;63734;45.218;36.708;2023-02-04T03:08:54;10.40;;;6.15;;
75152;SDS011;63734;45.218;36.708;2023-02-04T03:11:22;12.00;;;6.07;;
75152;SDS011;63734;45.218;36.708;2023-02-04T03:13:51;11.27;;;6.30;;
75152;SDS011;63734;45.218;36.708;2023-02-04T03:16:17;12.30;;;5.60;;
75152;SDS011;63734;45.218;36.708;2023-02-04T03:18:44;9.70;;;5.03;;
75152;SDS011;63734;45.218;36.708;2023-02-04T03:21:11;6.90;;;3.85;;
75152;SDS011;63734;45.218;36.708;2023-02-04T03:23:37;7.45;;;4.78;;
75152;SDS011;63734;45.218;36.708;2023-02-04T03:26:03;11.45;;;5.57;;
75152;SDS011;63734;45.218;36.708;2023-02-04T03:28:30;10.57;;;5.57;;
75152;SDS011;63734;45.218;36.708;2023-02-04T03:30:57;13.73;;;6.03;;
75152;SDS011;63734;45.218;36.708;2023-02-04T03:33:24;11.05;;;6.10;;
75152;SDS011;63734;45.218;36.708;2023-02-04T03:35:53;12.23;;;5.05;;
75152;SDS011;63734;45.218;36.708;2023-02-04T03:38:19;14.15;;;5.47;;
75152;SDS011;63734;45.218;36.708;2023-02-04T03:40:45;11.10;;;5.40;;
75152;SDS011;63734;45.218;36.708;2023-02-04T03:43:11;10.38;;;5.18;;
75152;SDS011;63734;45.218;36.708;2023-02-04T03:45:37;7.32;;;3.75;;
75152;SDS011;63734;45.218;36.708;2023-02-04T03:48:03;5.60;;;3.33;;
75152;SDS011;63734;45.218;36.708;2023-02-04T03:50:29;7.00;;;3.85;;
75152;SDS011;63734;45.218;36.708;2023-02-04T03:52:55;9.68;;;5.22;;
75152;SDS011;63734;45.218;36.708;2023-02-04T03:55:21;9.68;;;4.80;;
75152;SDS011;63734;45.218;36.708;2023-02-04T03:57:47;7.97;;;4.05;;
75152;SDS011;63734;45.218;36.708;2023-02-04T04:00:13;8.07;;;4.40;;
75152;SDS011;63734;45.218;36.708;2023-02-04T04:02:39;9.07;;;3.90;;
75152;SDS011;63734;45.218;36.708;2023-02-04T04:05:06;8.02;;;3.65;;
75152;SDS011;63734;45.218;36.708;2023-02-04T04:07:33;4.07;;;2.42;;
75152;SDS011;63734;45.218;36.708;2023-02-04T04:09:59;8.52;;;4.68;;
75152;SDS011;63734;45.218;36.708;2023-02-04T04:12:25;7.53;;;3.50;;
75152;SDS011;63734;45.218;36.708;2023-02-04T04:14:51;9.77;;;4.85;;
75152;SDS011;63734;45.218;36.708;2023-02-04T04:17:17;8.40;;;3.95;;
75152;SDS011;63734;45.218;36.708;2023-02-04T04:19:43;10.05;;;4.03;;
75152;SDS011;63734;45.218;36.708;2023-02-04T04:22:09;9.68;;;4.55;;
75152;SDS011;63734;45.218;36.708;2023-02-04T04:24:35;7.72;;;4.22;;
75152;SDS011;63734;45.218;36.708;2023-02-04T04:27:01;6.82;;;3.47;;
75152;SDS011;63734;45.218;36.708;2023-02-04T04:29:27;9.48;;;5.13;;
75152;SDS011;63734;45.218;36.708;2023-02-04T04:31:53;7.90;;;3.42;;
75152;SDS011;63734;45.218;36.708;2023-02-04T04:34:19;7.75;;;3.78;;
75152;SDS011;63734;45.218;36.708;2023-02-04T04:36:45;7.28;;;4.25;;
75152;SDS011;63734;45.218;36.708;2023-02-04T04:39:11;7.53;;;4.55;;
75152;SDS011;63734;45.218;36.708;2023-02-04T04:41:37;6.68;;;3.58;;
75152;SDS011;63734;45.218;36.708;2023-02-04T04:44:03;7.80;;;4.18;;
75152;SDS011;63734;45.218;36.708;2023-02-04T04:46:29;7.15;;;3.85;;
75152;SDS011;63734;45.218;36.708;2023-02-04T04:48:56;6.13;;;3.40;;
75152;SDS011;63734;45.218;36.708;2023-02-04T04:51:22;7.47;;;3.83;;
75152;SDS011;63734;45.218;36.708;2023-02-04T04:53:47;7.20;;;3.97;;
75152;SDS011;63734;45.218;36.708;2023-02-04T04:56:13;6.82;;;3.33;;
75152;SDS011;63734;45.218;36.708;2023-02-04T04:58:39;10.25;;;4.85;;
75152;SDS011;63734;45.218;36.708;2023-02-04T05:01:05;10.20;;;5.40;;
75152;SDS011;63734;45.218;36.708;2023-02-04T05:03:31;6.57;;;3.53;;
75152;SDS011;63734;45.218;36.708;2023-02-04T05:05:57;7.68;;;4.15;;
75152;SDS011;63734;45.218;36.708;2023-02-04T05:08:23;9.80;;;5.80;;
75152;SDS011;63734;45.218;36.708;2023-02-04T05:10:49;9.95;;;4.30;;
75152;SDS011;63734;45.218;36.708;2023-02-04T05:13:15;11.35;;;6.05;;
75152;SDS011;63734;45.218;36.708;2023-02-04T05:15:41;8.63;;;4.97;;
75152;SDS011;63734;45.218;36.708;2023-02-04T05:18:07;15.63;;;5.70;;
75152;SDS011;63734;45.218;36.708;2023-02-04T05:20:33;10.55;;;5.13;;
75152;SDS011;63734;45.218;36.708;2023-02-04T05:22:59;7.53;;;3.20;;
75152;SDS011;63734;45.218;36.708;2023-02-04T05:25:27;7.55;;;3.88;;
75152;SDS011;63734;45.218;36.708;2023-02-04T05:27:53;9.73;;;4.95;;
75152;SDS011;63734;45.218;36.708;2023-02-04T05:30:19;5.90;;;3.35;;
75152;SDS011;63734;45.218;36.708;2023-02-04T05:32:45;8.68;;;3.55;;
75152;SDS011;63734;45.218;36.708;2023-02-04T05:35:11;8.15;;;4.55;;
75152;SDS011;63734;45.218;36.708;2023-02-04T05:37:37;9.38;;;3.53;;
75152;SDS011;63734;45.218;36.708;2023-02-04T05:40:03;5.63;;;3.53;;
75152;SDS011;63734;45.218;36.708;2023-02-04T05:42:30;5.53;;;2.97;;
75152;SDS011;63734;45.218;36.708;2023-02-04T05:44:56;11.52;;;4.28;;
75152;SDS011;63734;45.218;36.708;2023-02-04T05:47:22;7.97;;;4.53;;
75152;SDS011;63734;45.218;36.708;2023-02-04T05:49:48;9.18;;;4.75;;
75152;SDS011;63734;45.218;36.708;2023-02-04T05:52:14;9.77;;;4.93;;
75152;SDS011;63734;45.218;36.708;2023-02-04T05:54:40;9.60;;;4.75;;
75152;SDS011;63734;45.218;36.708;2023-02-04T05:57:06;12.18;;;5.13;;
75152;SDS011;63734;45.218;36.708;2023-02-04T05:59:32;9.75;;;5.07;;
75152;SDS011;63734;45.218;36.708;2023-02-04T06:01:58;8.68;;;4.75;;
75152;SDS011;63734;45.218;36.708;2023-02-04T06:04:24;7.88;;;3.95;;
75152;SDS011;63734;45.218;36.708;2023-02-04T06:06:50;13.13;;;5.47;;
75152;SDS011;63734;45.218;36.708;2023-02-04T06:09:16;10.05;;;5.53;;
75152;SDS011;63734;45.218;36.708;2023-02-04T06:11:42;10.27;;;5.20;;
75152;SDS011;63734;45.218;36.708;2023-02-04T06:14:08;9.55;;;4.65;;
75152;SDS011;63734;45.218;36.708;2023-02-04T06:16:35;7.05;;;3.22;;
75152;SDS011;63734;45.218;36.708;2023-02-04T06:19:01;8.68;;;4.78;;
75152;SDS011;63734;45.218;36.708;2023-02-04T06:21:27;9.07;;;4.88;;
75152;SDS011;63734;45.218;36.708;2023-02-04T06:23:58;13.60;;;5.78;;
75152;SDS011;63734;45.218;36.708;2023-02-04T06:26:24;10.38;;;6.28;;
75152;SDS011;63734;45.218;36.708;2023-02-04T06:28:51;12.73;;;5.88;;
75152;SDS011;63734;45.218;36.708;2023-02-04T06:31:17;9.20;;;5.15;;
75152;SDS011;63734;45.218;36.708;2023-02-04T06:33:43;12.73;;;6.15;;
75152;SDS011;63734;45.218;36.708;2023-02-04T06:36:09;10.00;;;5.25;;
75152;SDS011;63734;45.218;36.708;2023-02-04T06:38:35;11.90;;;5.75;;
75152;SDS011;63734;45.218;36.708;2023-02-04T06:41:01;10.07;;;5.10;;
75152;SDS011;63734;45.218;36.708;2023-02-04T06:43:27;9.38;;;4.97;;
75152;SDS011;63734;45.218;36.708;2023-02-04T06:45:53;9.25;;;4.88;;
75152;SDS011;63734;45.218;36.708;2023-02-04T06:48:19;10.15;;;5.20;;
75152;SDS011;63734;45.218;36.708;2023-02-04T06:50:45;9.52;;;4.65;;
75152;SDS011;63734;45.218;36.708;2023-02-04T06:53:11;5.88;;;3.47;;
75152;SDS011;63734;45.218;36.708;2023-02-04T06:55:37;6.63;;;3.03;;
75152;SDS011;63734;45.218;36.708;2023-02-04T06:58:03;6.35;;;3.35;;
75152;SDS011;63734;45.218;36.708;2023-02-04T07:00:29;8.82;;;4.80;;
75152;SDS011;63734;45.218;36.708;2023-02-04T07:02:55;12.52;;;5.25;;
75152;SDS011;63734;45.218;36.708;2023-02-04T07:05:23;18.05;;;6.03;;
75152;SDS011;63734;45.218;36.708;2023-02-04T07:07:49;15.70;;;7.85;;
75152;SDS011;63734;45.218;36.708;2023-02-04T07:10:15;14.90;;;6.97;;
75152;SDS011;63734;45.218;36.708;2023-02-04T07:12:42;5.13;;;3.15;;
75152;SDS011;63734;45.218;36.708;2023-02-04T07:15:08;8.40;;;4.80;;
75152;SDS011;63734;45.218;36.708;2023-02-04T07:17:34;7.70;;;4.28;;
75152;SDS011;63734;45.218;36.708;2023-02-04T07:20:00;9.68;;;4.82;;
75152;SDS011;63734;45.218;36.708;2023-02-04T07:22:26;3.97;;;2.30;;
75152;SDS011;63734;45.218;36.708;2023-02-04T07:24:52;9.25;;;4.90;;
75152;SDS011;63734;45.218;36.708;2023-02-04T07:27:18;6.60;;;3.33;;
75152;SDS011;63734;45.218;36.708;2023-02-04T07:29:44;6.60;;;3.45;;
75152;SDS011;63734;45.218;36.708;2023-02-04T07:32:10;4.93;;;3.28;;
75152;SDS011;63734;45.218;36.708;2023-02-04T07:34:36;5.53;;;3.13;;
75152;SDS011;63734;45.218;36.708;2023-02-04T07:37:02;12.25;;;6.50;;
75152;SDS011;63734;45.218;36.708;2023-02-04T07:39:28;5.82;;;3.63;;
75152;SDS011;63734;45.218;36.708;2023-02-04T07:41:54;11.27;;;5.38;;
75152;SDS011;63734;45.218;36.708;2023-02-04T07:44:23;5.63;;;3.13;;
75152;SDS011;63734;45.218;36.708;2023-02-04T07:46:49;8.65;;;4.57;;
75152;SDS011;63734;45.218;36.708;2023-02-04T07:49:15;4.35;;;2.95;;
75152;SDS011;63734;45.218;36.708;2023-02-04T07:51:41;6.22;;;4.15;;
75152;SDS011;63734;45.218;36.708;2023-02-04T07:54:07;5.25;;;2.97;;
75152;SDS011;63734;45.218;36.708;2023-02-04T07:56:33;5.90;;;2.70;;
75152;SDS011;63734;45.218;36.708;2023-02-04T07:58:59;6.90;;;3.63;;
75152;SDS011;63734;45.218;36.708;2023-02-04T08:01:25;4.95;;;3.25;;
75152;SDS011;63734;45.218;36.708;2023-02-04T08:03:51;5.85;;;3.35;;
75152;SDS011;63734;45.218;36.708;2023-02-04T08:06:17;4.15;;;2.53;;
75152;SDS011;63734;45.218;36.708;2023-02-04T08:08:43;4.82;;;3.08;;
75152;SDS011;63734;45.218;36.708;2023-02-04T08:11:09;8.30;;;4.20;;
75152;SDS011;63734;45.218;36.708;2023-02-04T08:13:35;5.32;;;3.40;;
75152;SDS011;63734;45.218;36.708;2023-02-04T08:16:01;4.65;;;2.70;;
75152;SDS011;63734;45.218;36.708;2023-02-04T08:18:28;4.28;;;2.72;;
75152;SDS011;63734;45.218;36.708;2023-02-04T08:20:54;6.88;;;3.78;;
75152;SDS011;63734;45.218;36.708;2023-02-04T08:23:20;8.27;;;4.88;;
75152;SDS011;63734;45.218;36.708;2023-02-04T08:25:47;8.25;;;4.55;;
75152;SDS011;63734;45.218;36.708;2023-02-04T08:28:13;7.78;;;4.47;;
75152;SDS011;63734;45.218;36.708;2023-02-04T08:30:39;12.10;;;3.97;;
75152;SDS011;63734;45.218;36.708;2023-02-04T08:33:05;9.55;;;4.72;;
75152;SDS011;63734;45.218;36.708;2023-02-04T08:35:32;9.80;;;5.22;;
75152;SDS011;63734;45.218;36.708;2023-02-04T08:37:58;10.05;;;4.65;;
75152;SDS011;63734;45.218;36.708;2023-02-04T08:40:24;7.13;;;4.63;;
75152;SDS011;63734;45.218;36.708;2023-02-04T08:42:49;7.60;;;4.28;;
75152;SDS011;63734;45.218;36.708;2023-02-04T08:45:16;8.05;;;3.75;;
75152;SDS011;63734;45.218;36.708;2023-02-04T08:47:42;5.47;;;3.30;;
75152;SDS011;63734;45.218;36.708;2023-02-04T08:50:09;7.47;;;4.13;;
75152;SDS011;63734;45.218;36.708;2023-02-04T08:52:35;7.95;;;3.47;;
75152;SDS011;63734;45.218;36.708;2023-02-04T08:55:02;7.07;;;3.92;;
75152;SDS011;63734;45.218;36.708;2023-02-04T08:57:28;7.50;;;4.20;;
75152;SDS011;63734;45.218;36.708;2023-02-04T08:59:54;9.52;;;4.15;;
75152;SDS011;63734;45.218;36.708;2023-02-04T09:02:20;4.15;;;2.92;;
75152;SDS011;63734;45.218;36.708;2023-02-04T09:04:46;5.20;;;3.05;;
75152;SDS011;63734;45.218;36.708;2023-02-04T09:07:12;8.25;;;3.60;;
75152;SDS011;63734;45.218;36.708;2023-02-04T09:09:38;6.68;;;3.88;;
75152;SDS011;63734;45.218;36.708;2023-02-04T09:12:04;4.25;;;2.72;;
75152;SDS011;63734;45.218;36.708;2023-02-04T09:14:30;7.03;;;3.53;;
75152;SDS011;63734;45.218;36.708;2023-02-04T09:16:56;8.05;;;4.10;;
75152;SDS011;63734;45.218;36.708;2023-02-04T09:19:22;7.20;;;4.07;;
75152;SDS011;63734;45.218;36.708;2023-02-04T09:21:52;8.15;;;3.75;;
75152;SDS011;63734;45.218;36.708;2023-02-04T09:24:19;5.60;;;3.05;;
75152;SDS011;63734;45.218;36.708;2023-02-04T09:26:48;7.50;;;3.42;;
75152;SDS011;63734;45.218;36.708;2023-02-04T09:29:14;6.20;;;3.38;;
75152;SDS011;63734;45.218;36.708;2023-02-04T09:31:41;6.88;;;3.78;;
75152;SDS011;63734;45.218;36.708;2023-02-04T09:34:07;5.45;;;2.72;;
75152;SDS011;63734;45.218;36.708;2023-02-04T09:36:33;2.17;;;1.35;;
75152;SDS011;63734;45.218;36.708;2023-02-04T09:39:05;4.63;;;2.22;;
75152;SDS011;63734;45.218;36.708;2023-02-04T09:41:33;5.00;;;2.90;;
75152;SDS011;63734;45.218;36.708;2023-02-04T09:44:02;9.05;;;4.18;;
75152;SDS011;63734;45.218;36.708;2023-02-04T09:46:30;6.78;;;4.07;;
75152;SDS011;63734;45.218;36.708;2023-02-04T09:48:59;4.25;;;2.70;;
75152;SDS011;63734;45.218;36.708;2023-02-04T09:51:31;5.25;;;2.30;;
75152;SDS011;63734;45.218;36.708;2023-02-04T09:54:02;4.75;;;2.65;;
75152;SDS011;63734;45.218;36.708;2023-02-04T09:56:35;6.40;;;3.00;;
75152;SDS011;63734;45.218;36.708;2023-02-04T09:59:02;3.28;;;1.70;;
75152;SDS011;63734;45.218;36.708;2023-02-04T10:01:34;5.47;;;2.50;;
75152;SDS011;63734;45.218;36.708;2023-02-04T10:04:01;5.90;;;3.30;;
75152;SDS011;63734;45.218;36.708;2023-02-04T10:06:27;6.40;;;3.80;;
75152;SDS011;63734;45.218;36.708;2023-02-04T10:08:53;5.90;;;3.22;;
75152;SDS011;63734;45.218;36.708;2023-02-04T10:11:21;6.93;;;3.25;;
75152;SDS011;63734;45.218;36.708;2023-02-04T10:13:50;5.25;;;2.92;;
75152;SDS011;63734;45.218;36.708;2023-02-04T10:16:20;9.57;;;2.80;;
75152;SDS011;63734;45.218;36.708;2023-02-04T10:21:28;3.13;;;2.00;;
75152;SDS011;63734;45.218;36.708;2023-02-04T10:24:01;3.13;;;2.10;;
75152;SDS011;63734;45.218;36.708;2023-02-04T10:26:30;4.10;;;1.65;;
75152;SDS011;63734;45.218;36.708;2023-02-04T10:29:03;3.10;;;2.00;;
75152;SDS011;63734;45.218;36.708;2023-02-04T10:31:33;2.65;;;1.85;;
75152;SDS011;63734;45.218;36.708;2023-02-04T10:34:05;5.13;;;1.90;;
75152;SDS011;63734;45.218;36.708;2023-02-04T10:36:37;3.22;;;2.15;;
75152;SDS011;63734;45.218;36.708;2023-02-04T10:39:18;2.33;;;1.58;;
75152;SDS011;63734;45.218;36.708;2023-02-04T10:44:44;3.47;;;2.58;;
75152;SDS011;63734;45.218;36.708;2023-02-04T10:47:18;3.17;;;1.90;;
75152;SDS011;63734;45.218;36.708;2023-02-04T10:49:56;3.42;;;2.08;;
75152;SDS011;63734;45.218;36.708;2023-02-04T10:52:40;4.30;;;2.10;;
75152;SDS011;63734;45.218;36.708;2023-02-04T10:55:18;2.22;;;1.65;;
75152;SDS011;63734;45.218;36.708;2023-02-04T10:57:47;3.35;;;1.63;;
75152;SDS011;63734;45.218;36.708;2023-02-04T11:00:20;2.05;;;1.77;;
75152;SDS011;63734;45.218;36.708;2023-02-04T11:05:24;3.00;;;1.92;;
75152;SDS011;63734;45.218;36.708;2023-02-04T11:07:55;3.00;;;1.98;;
75152;SDS011;63734;45.218;36.708;2023-02-04T11:10:31;3.22;;;1.92;;
75152;SDS011;63734;45.218;36.708;2023-02-04T11:13:04;3.13;;;1.90;;
75152;SDS011;63734;45.218;36.708;2023-02-04T11:15:41;3.72;;;1.65;;
75152;SDS011;63734;45.218;36.708;2023-02-04T11:20:50;3.20;;;1.88;;
75152;SDS011;63734;45.218;36.708;2023-02-04T11:26:00;3.83;;;2.08;;
75152;SDS011;63734;45.218;36.708;2023-02-04T11:33:44;3.20;;;2.00;;
75152;SDS011;63734;45.218;36.708;2023-02-04T11:36:11;2.00;;;1.30;;
75152;SDS011;63734;45.218;36.708;2023-02-04T11:38:42;3.03;;;1.88;;
75152;SDS011;63734;45.218;36.708;2023-02-04T11:41:20;2.53;;;1.98;;
75152;SDS011;63734;45.218;36.708;2023-02-04T11:43:52;3.17;;;2.10;;
75152;SDS011;63734;45.218;36.708;2023-02-04T11:46:19;3.35;;;2.10;;
75152;SDS011;63734;45.218;36.708;2023-02-04T11:48:45;4.65;;;2.42;;
75152;SDS011;63734;45.218;36.708;2023-02-04T11:51:16;3.53;;;2.30;;
75152;SDS011;63734;45.218;36.708;2023-02-04T11:53:49;4.85;;;2.97;;
75152;SDS011;63734;45.218;36.708;2023-02-04T11:56:16;4.78;;;2.35;;
75152;SDS011;63734;45.218;36.708;2023-02-04T11:58:43;2.83;;;2.08;;
75152;SDS011;63734;45.218;36.708;2023-02-04T12:01:17;4.90;;;2.70;;
75152;SDS011;63734;45.218;36.708;2023-02-04T12:03:48;4.38;;;2.10;;
75152;SDS011;63734;45.218;36.708;2023-02-04T12:06:28;2.33;;;1.58;;
75152;SDS011;63734;45.218;36.708;2023-02-04T12:09:06;4.65;;;2.70;;
75152;SDS011;63734;45.218;36.708;2023-02-04T12:11:33;4.43;;;2.47;;
75152;SDS011;63734;45.218;36.708;2023-02-04T12:14:07;4.18;;;2.28;;
75152;SDS011;63734;45.218;36.708;2023-02-04T12:16:44;3.75;;;2.55;;
75152;SDS011;63734;45.218;36.708;2023-02-04T12:19:12;3.33;;;2.00;;
75152;SDS011;63734;45.218;36.708;2023-02-04T12:21:38;5.63;;;2.90;;
75152;SDS011;63734;45.218;36.708;2023-02-04T12:24:05;4.55;;;2.40;;
75152;SDS011;63734;45.218;36.708;2023-02-04T12:26:31;3.70;;;2.38;;
75152;SDS011;63734;45.218;36.708;2023-02-04T12:28:57;5.88;;;2.83;;
75152;SDS011;63734;45.218;36.708;2023-02-04T12:31:27;5.00;;;2.97;;
75152;SDS011;63734;45.218;36.708;2023-02-04T12:33:56;6.40;;;2.58;;
75152;SDS011;63734;45.218;36.708;2023-02-04T12:36:22;3.88;;;2.38;;
75152;SDS011;63734;45.218;36.708;2023-02-04T12:38:50;4.30;;;2.75;;
75152;SDS011;63734;45.218;36.708;2023-02-04T12:41:16;5.55;;;2.72;;
75152;SDS011;63734;45.218;36.708;2023-02-04T12:43:44;4.72;;;3.00;;
75152;SDS011;63734;45.218;36.708;2023-02-04T12:46:11;5.35;;;3.40;;
75152;SDS011;63734;45.218;36.708;2023-02-04T12:48:37;5.65;;;3.10;;
75152;SDS011;63734;45.218;36.708;2023-02-04T12:51:05;4.25;;;2.90;;
75152;SDS011;63734;45.218;36.708;2023-02-04T12:53:32;5.60;;;2.90;;
75152;SDS011;63734;45.218;36.708;2023-02-04T12:56:01;5.45;;;2.90;;
75152;SDS011;63734;45.218;36.708;2023-02-04T12:58:27;8.13;;;3.90;;
75152;SDS011;63734;45.218;36.708;2023-02-04T13:00:53;2.85;;;2.15;;
75152;SDS011;63734;45.218;36.708;2023-02-04T13:03:19;4.30;;;2.20;;
75152;SDS011;63734;45.218;36.708;2023-02-04T13:05:45;5.07;;;3.03;;
75152;SDS011;63734;45.218;36.708;2023-02-04T13:08:11;4.40;;;2.38;;
75152;SDS011;63734;45.218;36.708;2023-02-04T13:10:37;7.13;;;3.20;;
75152;SDS011;63734;45.218;36.708;2023-02-04T13:13:03;6.72;;;3.63;;
75152;SDS011;63734;45.218;36.708;2023-02-04T13:15:29;8.25;;;3.45;;
75152;SDS011;63734;45.218;36.708;2023-02-04T13:17:54;4.82;;;2.80;;
75152;SDS011;63734;45.218;36.708;2023-02-04T13:20:20;5.85;;;3.53;;
75152;SDS011;63734;45.218;36.708;2023-02-04T13:22:50;6.93;;;3.38;;
75152;SDS011;63734;45.218;36.708;2023-02-04T13:25:16;5.53;;;2.88;;
75152;SDS011;63734;45.218;36.708;2023-02-04T13:27:42;5.78;;;3.35;;
75152;SDS011;63734;45.218;36.708;2023-02-04T13:30:08;6.82;;;3.47;;
75152;SDS011;63734;45.218;36.708;2023-02-04T13:32:36;7.38;;;3.38;;
75152;SDS011;63734;45.218;36.708;2023-02-04T13:35:02;4.70;;;2.85;;
75152;SDS011;63734;45.218;36.708;2023-02-04T13:37:28;7.97;;;4.00;;
75152;SDS011;63734;45.218;36.708;2023-02-04T13:39:54;5.85;;;3.38;;
75152;SDS011;63734;45.218;36.708;2023-02-04T13:42:21;5.20;;;3.00;;
75152;SDS011;63734;45.218;36.708;2023-02-04T13:44:47;5.57;;;3.05;;
75152;SDS011;63734;45.218;36.708;2023-02-04T13:47:12;6.03;;;2.30;;
75152;SDS011;63734;45.218;36.708;2023-02-04T13:49:38;6.97;;;3.30;;
75152;SDS011;63734;45.218;36.708;2023-02-04T13:52:04;6.15;;;2.80;;
75152;SDS011;63734;45.218;36.708;2023-02-04T13:54:31;4.63;;;2.50;;
75152;SDS011;63734;45.218;36.708;2023-02-04T13:56:56;3.95;;;2.35;;
75152;SDS011;63734;45.218;36.708;2023-02-04T13:59:22;3.22;;;2.00;;
75152;SDS011;63734;45.218;36.708;2023-02-04T14:01:48;3.17;;;2.10;;
75152;SDS011;63734;45.218;36.708;2023-02-04T14:04:14;3.95;;;2.28;;
75152;SDS011;63734;45.218;36.708;2023-02-04T14:06:40;4.15;;;2.50;;
75152;SDS011;63734;45.218;36.708;2023-02-04T14:09:08;4.40;;;2.90;;
75152;SDS011;63734;45.218;36.708;2023-02-04T14:11:36;4.05;;;2.50;;
75152;SDS011;63734;45.218;36.708;2023-02-04T14:14:02;4.22;;;2.50;;
75152;SDS011;63734;45.218;36.708;2023-02-04T14:16:28;4.97;;;2.08;;
75152;SDS011;63734;45.218;36.708;2023-02-04T14:18:54;3.70;;;1.98;;
75152;SDS011;63734;45.218;36.708;2023-02-04T14:21:20;3.40;;;1.77;;
75152;SDS011;63734;45.218;36.708;2023-02-04T14:23:47;3.78;;;1.70;;
75152;SDS011;63734;45.218;36.708;2023-02-04T14:26:13;6.85;;;3.53;;
75152;SDS011;63734;45.218;36.708;2023-02-04T14:28:39;3.65;;;2.13;;
75152;SDS011;63734;45.218;36.708;2023-02-04T14:31:05;5.25;;;3.40;;
75152;SDS011;63734;45.218;36.708;2023-02-04T14:33:31;3.22;;;2.03;;
75152;SDS011;63734;45.218;36.708;2023-02-04T14:35:57;3.45;;;2.17;;
75152;SDS011;63734;45.218;36.708;2023-02-04T14:38:23;6.13;;;2.28;;
75152;SDS011;63734;45.218;36.708;2023-02-04T14:40:55;2.60;;;2.00;;
75152;SDS011;63734;45.218;36.708;2023-02-04T14:43:24;2.92;;;1.42;;
75152;SDS011;63734;45.218;36.708;2023-02-04T14:45:51;1.85;;;1.30;;
75152;SDS011;63734;45.218;36.708;2023-02-04T14:48:17;2.20;;;1.42;;
75152;SDS011;63734;45.218;36.708;2023-02-04T14:50:43;2.63;;;1.73;;
75152;SDS011;63734;45.218;36.708;2023-02-04T14:53:09;3.53;;;2.00;;